createdAt,value
2022-12-29T00:01:33.371Z,101128.03
2022-12-29T00:03:59.913Z,101127.66
2022-12-29T00:06:26.425Z,101132.84
2022-12-29T00:08:52.885Z,101140.28
2022-12-29T00:11:20.157Z,101148.34
2022-12-29T00:14:05.489Z,101148.22
2022-12-29T00:16:32.348Z,101145.47
2022-12-29T00:18:58.864Z,101131.59
2022-12-29T00:21:43.958Z,101136.47
2022-12-29T00:24:35.826Z,101134.41
2022-12-29T00:27:21.037Z,101140.19
2022-12-29T00:30:05.940Z,101132.25
2022-12-29T00:32:52.803Z,101130.44
2022-12-29T00:35:22.979Z,101126.22
2022-12-29T00:38:08.130Z,101121.50
2022-12-29T00:40:55.335Z,101129.75
2022-12-29T00:43:40.381Z,101137.72
2022-12-29T00:46:06.806Z,101127.56
2022-12-29T00:48:51.965Z,101133.88
2022-12-29T00:51:18.515Z,101124.34
2022-12-29T00:53:44.957Z,101126.31
2022-12-29T00:56:11.340Z,101132.94
2022-12-29T00:58:37.748Z,101131.87
2022-12-29T01:01:04.810Z,101126.91
2022-12-29T01:03:31.349Z,101122.78
2022-12-29T01:05:57.733Z,101120.19
2022-12-29T01:08:24.223Z,101127.19
2022-12-29T01:11:03.120Z,101140.19
2022-12-29T01:13:29.649Z,101132.44
2022-12-29T01:15:56.260Z,101127.88
2022-12-29T01:18:22.835Z,101125.37
2022-12-29T01:20:49.280Z,101123.53
2022-12-29T01:23:15.889Z,101130.53
2022-12-29T01:25:43.037Z,101127.38
2022-12-29T01:28:09.475Z,101128.72
2022-12-29T01:30:36.053Z,101127.06
2022-12-29T01:33:02.502Z,101118.87
2022-12-29T01:35:28.962Z,101117.31
2022-12-29T01:37:55.411Z,101113.50
2022-12-29T01:40:22.093Z,101112.56
2022-12-29T01:42:48.568Z,101111.78
2022-12-29T01:45:15.982Z,101123.53
2022-12-29T01:47:54.862Z,101126.44
2022-12-29T01:50:21.239Z,101119.00
2022-12-29T01:52:52.328Z,101118.75
2022-12-29T01:55:18.807Z,101111.97
2022-12-29T01:57:45.537Z,101110.66
2022-12-29T02:00:12.613Z,101114.94
2022-12-29T02:02:39.078Z,101104.03
2022-12-29T02:05:10.264Z,101109.41
2022-12-29T02:07:36.713Z,101106.72
2022-12-29T02:10:03.209Z,101100.28
2022-12-29T02:12:29.588Z,101096.47
2022-12-29T02:14:56.934Z,101100.69
2022-12-29T02:17:49.680Z,101094.72
2022-12-29T02:20:34.665Z,101086.25
2022-12-29T02:23:16.525Z,101093.63
2022-12-29T02:26:02.481Z,101090.47
2022-12-29T02:28:47.055Z,101085.00
2022-12-29T02:31:29.059Z,101084.44
2022-12-29T02:34:07.657Z,101088.25
2022-12-29T02:37:10.204Z,101086.53
2022-12-29T02:39:59.859Z,101088.97
2022-12-29T02:42:55.941Z,101083.59
2022-12-29T02:45:58.046Z,101076.19
2022-12-29T02:48:30.356Z,101073.69
2022-12-29T02:50:59.800Z,101077.06
2022-12-29T02:53:45.103Z,101078.88
2022-12-29T02:56:11.480Z,101071.91
2022-12-29T02:58:37.939Z,101071.97
2022-12-29T03:01:04.506Z,101073.28
2022-12-29T03:03:31.042Z,101062.00
2022-12-29T03:05:57.560Z,101068.34
2022-12-29T03:08:35.278Z,101070.03
2022-12-29T03:11:32.108Z,101075.16
2022-12-29T03:14:20.337Z,101064.63
2022-12-29T03:16:50.929Z,101057.59
2022-12-29T03:19:31.979Z,101059.09
2022-12-29T03:22:31.935Z,101065.53
2022-12-29T03:25:00.271Z,101073.97
2022-12-29T03:27:28.287Z,101065.88
2022-12-29T03:29:56.115Z,101063.06
2022-12-29T03:32:23.108Z,101060.59
2022-12-29T03:34:49.904Z,101053.72
2022-12-29T03:37:17.014Z,101048.22
2022-12-29T03:39:45.243Z,101041.75
2022-12-29T03:42:16.781Z,101035.66
2022-12-29T03:44:44.825Z,101037.50
2022-12-29T03:47:11.902Z,101038.66
2022-12-29T03:49:38.389Z,101045.22
2022-12-29T03:52:04.973Z,101040.81
2022-12-29T03:54:31.429Z,101034.50
2022-12-29T03:56:57.972Z,101039.72
2022-12-29T03:59:24.555Z,101031.72
2022-12-29T04:01:51.027Z,101036.22
2022-12-29T04:04:17.606Z,101041.88
2022-12-29T04:06:44.139Z,101038.25
2022-12-29T04:09:10.716Z,101041.06
2022-12-29T04:11:37.151Z,101039.97
2022-12-29T04:14:03.605Z,101041.19
2022-12-29T04:16:30.056Z,101039.38
2022-12-29T04:18:56.516Z,101035.62
2022-12-29T04:21:22.915Z,101030.81
2022-12-29T04:23:49.335Z,101030.69
2022-12-29T04:26:15.779Z,101038.50
2022-12-29T04:28:42.177Z,101032.09
2022-12-29T04:31:08.978Z,101042.62
2022-12-29T04:33:35.420Z,101033.41
2022-12-29T04:36:01.870Z,101042.62
2022-12-29T04:38:28.444Z,101038.19
2022-12-29T04:40:54.872Z,101038.72
2022-12-29T04:43:22.682Z,101025.97
2022-12-29T04:45:49.146Z,101033.56
2022-12-29T04:48:15.591Z,101039.94
2022-12-29T04:50:42.085Z,101037.97
2022-12-29T04:53:08.494Z,101029.16
2022-12-29T04:55:34.911Z,101029.47
2022-12-29T04:58:01.344Z,101035.97
2022-12-29T05:00:27.823Z,101037.81
2022-12-29T05:02:54.605Z,101046.28
2022-12-29T05:05:21.194Z,101043.69
2022-12-29T05:07:47.638Z,101051.41
2022-12-29T05:10:14.088Z,101045.28
2022-12-29T05:12:40.888Z,101046.00
2022-12-29T05:15:07.730Z,101041.50
2022-12-29T05:17:34.350Z,101053.38
2022-12-29T05:20:00.793Z,101041.13
2022-12-29T05:22:27.243Z,101043.09
2022-12-29T05:24:56.342Z,101034.03
2022-12-29T05:27:22.732Z,101034.53
2022-12-29T05:29:49.175Z,101032.31
2022-12-29T05:32:15.628Z,101035.88
2022-12-29T05:34:44.828Z,101043.69
2022-12-29T05:37:11.270Z,101037.72
2022-12-29T05:39:37.672Z,101034.41
2022-12-29T05:42:04.134Z,101037.72
2022-12-29T05:44:30.543Z,101036.87
2022-12-29T05:46:57.055Z,101034.63
2022-12-29T05:49:23.500Z,101029.87
2022-12-29T05:51:49.964Z,101029.00
2022-12-29T05:54:16.448Z,101028.62
2022-12-29T05:56:42.853Z,101022.63
2022-12-29T05:59:09.275Z,101018.75
2022-12-29T06:01:35.955Z,101016.63
2022-12-29T06:04:04.871Z,101017.09
2022-12-29T06:06:31.335Z,101020.66
2022-12-29T06:08:57.963Z,101021.53
2022-12-29T06:11:24.382Z,101029.09
2022-12-29T06:13:50.806Z,101021.25
2022-12-29T06:16:17.517Z,101026.00
2022-12-29T06:18:44.067Z,101027.25
2022-12-29T06:21:10.484Z,101017.59
2022-12-29T06:23:36.868Z,101020.75
2022-12-29T06:26:03.359Z,101020.00
2022-12-29T06:28:29.817Z,101031.78
2022-12-29T06:30:56.344Z,101028.00
2022-12-29T06:33:22.732Z,101026.72
2022-12-29T06:35:49.162Z,101026.00
2022-12-29T06:38:15.624Z,101031.72
2022-12-29T06:40:42.925Z,101030.69
2022-12-29T06:43:09.747Z,101020.75
2022-12-29T06:45:38.862Z,101025.47
2022-12-29T06:48:05.493Z,101027.31
2022-12-29T06:50:31.915Z,101032.47
2022-12-29T06:52:58.331Z,101028.94
2022-12-29T06:55:24.802Z,101037.41
2022-12-29T06:57:51.579Z,101040.13
2022-12-29T07:00:22.663Z,101041.56
2022-12-29T07:02:49.701Z,101042.81
2022-12-29T07:05:16.299Z,101037.06
2022-12-29T07:07:44.620Z,101038.97
2022-12-29T07:10:11.318Z,101039.31
2022-12-29T07:12:37.743Z,101044.56
2022-12-29T07:15:05.344Z,101056.28
2022-12-29T07:17:31.768Z,101056.59
2022-12-29T07:19:58.233Z,101056.53
2022-12-29T07:22:24.737Z,101050.63
2022-12-29T07:24:51.215Z,101057.06
2022-12-29T07:27:17.726Z,101055.25
2022-12-29T07:29:44.132Z,101052.94
2022-12-29T07:32:10.793Z,101057.84
2022-12-29T07:34:37.283Z,101059.16
2022-12-29T07:37:03.703Z,101054.09
2022-12-29T07:39:30.117Z,101055.28
2022-12-29T07:42:02.731Z,101053.59
2022-12-29T07:44:31.373Z,101044.19
2022-12-29T07:46:58.944Z,101053.63
2022-12-29T07:49:25.773Z,101048.59
2022-12-29T07:51:52.665Z,101057.41
2022-12-29T07:54:23.559Z,101065.72
2022-12-29T07:56:50.641Z,101062.28
2022-12-29T07:59:17.314Z,101060.84
2022-12-29T08:01:43.840Z,101055.19
2022-12-29T08:04:10.340Z,101056.75
2022-12-29T08:06:36.766Z,101063.34
2022-12-29T08:09:12.162Z,101058.75
2022-12-29T08:11:44.521Z,101060.44
2022-12-29T08:14:10.955Z,101052.59
2022-12-29T08:16:37.362Z,101054.19
2022-12-29T08:19:04.802Z,101052.50
2022-12-29T08:21:31.549Z,101058.38
2022-12-29T08:23:58.041Z,101050.16
2022-12-29T08:26:24.466Z,101046.25
2022-12-29T08:28:53.126Z,101045.78
2022-12-29T08:31:19.783Z,101045.59
2022-12-29T08:33:46.212Z,101037.25
2022-12-29T08:36:12.676Z,101032.72
2022-12-29T08:38:39.066Z,101037.88
2022-12-29T08:41:05.596Z,101037.63
2022-12-29T08:43:31.988Z,101037.41
2022-12-29T08:45:59.058Z,101031.62
2022-12-29T08:48:25.823Z,101030.06
2022-12-29T08:50:52.304Z,101035.22
2022-12-29T08:53:18.992Z,101033.63
2022-12-29T08:55:46.378Z,101036.81
2022-12-29T08:58:15.688Z,101024.72
2022-12-29T09:00:42.644Z,101031.69
2022-12-29T09:03:09.369Z,101022.41
2022-12-29T09:05:36.073Z,101029.03
2022-12-29T09:08:02.594Z,101041.13
2022-12-29T09:10:29.008Z,101023.47
2022-12-29T09:12:55.408Z,101027.25
2022-12-29T09:15:23.160Z,101013.31
2022-12-29T09:17:49.591Z,101021.75
2022-12-29T09:20:16.913Z,101018.34
2022-12-29T09:22:43.454Z,101014.78
2022-12-29T09:25:10.205Z,101011.72
2022-12-29T09:27:36.889Z,101009.87
2022-12-29T09:30:07.404Z,101004.84
2022-12-29T09:32:35.346Z,100998.38
2022-12-29T09:35:04.658Z,100989.53
2022-12-29T09:37:31.073Z,100995.69
2022-12-29T09:39:57.473Z,100994.69
2022-12-29T09:42:25.273Z,100984.00
2022-12-29T09:45:03.954Z,100980.47
2022-12-29T09:47:30.530Z,100980.16
2022-12-29T09:50:01.782Z,100979.00
2022-12-29T09:52:36.689Z,100983.66
2022-12-29T09:55:13.751Z,100972.87
2022-12-29T09:57:46.701Z,100987.94
2022-12-29T10:00:20.080Z,100977.16
2022-12-29T10:02:51.861Z,100980.16
2022-12-29T10:05:26.236Z,100969.81
2022-12-29T10:08:02.264Z,100966.63
2022-12-29T10:10:38.277Z,100967.09
2022-12-29T10:13:07.705Z,100959.88
2022-12-29T10:15:40.460Z,100952.78
2022-12-29T10:18:25.772Z,100946.66
2022-12-29T10:20:56.280Z,100957.59
2022-12-29T10:23:27.508Z,100947.03
2022-12-29T10:25:55.036Z,100948.75
2022-12-29T10:28:25.536Z,100949.66
2022-12-29T10:30:53.832Z,100949.75
2022-12-29T10:33:21.675Z,100949.09
2022-12-29T10:35:48.339Z,100952.56
2022-12-29T10:38:31.973Z,100958.31
2022-12-29T10:40:59.676Z,100953.06
2022-12-29T10:43:27.317Z,100945.34
2022-12-29T10:45:54.442Z,100935.28
2022-12-29T10:48:30.201Z,100940.66
2022-12-29T10:51:01.926Z,100947.19
2022-12-29T10:53:32.535Z,100938.13
2022-12-29T10:55:59.141Z,100936.28
2022-12-29T10:58:25.667Z,100936.75
2022-12-29T11:00:53.154Z,100930.78
2022-12-29T11:03:19.728Z,100922.69
2022-12-29T11:06:04.463Z,100921.44
2022-12-29T11:08:34.987Z,100923.75
2022-12-29T11:11:02.388Z,100925.13
2022-12-29T11:13:34.899Z,100915.69
2022-12-29T11:16:04.997Z,100922.69
2022-12-29T11:18:35.156Z,100928.03
2022-12-29T11:21:02.362Z,100925.09
2022-12-29T11:23:35.881Z,100925.06
2022-12-29T11:26:11.580Z,100916.03
2022-12-29T11:28:41.591Z,100908.56
2022-12-29T11:31:08.174Z,100911.06
2022-12-29T11:33:38.263Z,100908.78
2022-12-29T11:36:21.472Z,100906.75
2022-12-29T11:38:49.100Z,100904.47
2022-12-29T11:41:19.975Z,100892.03
2022-12-29T11:43:48.566Z,100887.50
2022-12-29T11:46:16.138Z,100882.66
2022-12-29T11:48:42.729Z,100885.09
2022-12-29T11:51:09.284Z,100886.91
2022-12-29T11:53:45.480Z,100885.31
2022-12-29T11:56:13.363Z,100890.63
2022-12-29T11:58:39.910Z,100883.78
2022-12-29T12:01:26.635Z,100881.66
2022-12-29T12:03:59.646Z,100887.28
2022-12-29T12:06:27.370Z,100888.41
2022-12-29T12:08:53.851Z,100896.03
2022-12-29T12:11:29.482Z,100892.94
2022-12-29T12:14:14.999Z,100892.34
2022-12-29T12:16:42.944Z,100891.00
2022-12-29T12:19:28.079Z,100877.53
2022-12-29T12:21:57.195Z,100874.72
2022-12-29T12:24:40.887Z,100872.75
2022-12-29T12:27:19.588Z,100866.72
2022-12-29T12:30:06.195Z,100864.66
2022-12-29T12:32:47.975Z,100854.72
2022-12-29T12:35:22.238Z,100844.69
2022-12-29T12:37:57.823Z,100830.88
2022-12-29T12:40:39.667Z,100822.91
2022-12-29T12:43:20.058Z,100832.31
2022-12-29T12:45:49.283Z,100824.97
2022-12-29T12:48:41.985Z,100830.34
2022-12-29T12:51:17.230Z,100824.56
2022-12-29T12:54:02.477Z,100831.81
2022-12-29T12:56:47.771Z,100816.78
2022-12-29T12:59:20.217Z,100820.19
2022-12-29T13:01:55.013Z,100827.88
2022-12-29T13:04:24.519Z,100828.34
2022-12-29T13:07:06.272Z,100832.66
2022-12-29T13:09:42.660Z,100830.66
2022-12-29T13:12:16.089Z,100834.22
2022-12-29T13:14:58.829Z,100834.00
2022-12-29T13:17:28.399Z,100831.91
2022-12-29T13:20:11.586Z,100838.88
2022-12-29T13:22:40.044Z,100845.00
2022-12-29T13:25:06.497Z,100840.19
2022-12-29T13:27:37.763Z,100842.41
2022-12-29T13:30:27.960Z,100838.16
2022-12-29T13:32:54.361Z,100847.56
2022-12-29T13:35:49.923Z,100846.72
2022-12-29T13:38:18.655Z,100846.44
2022-12-29T13:40:47.269Z,100839.22
2022-12-29T13:43:14.500Z,100836.41
2022-12-29T13:45:41.113Z,100840.94
2022-12-29T13:48:23.643Z,100847.44
2022-12-29T13:50:57.467Z,100847.03
2022-12-29T13:53:44.731Z,100848.16
2022-12-29T13:56:13.885Z,100849.12
2022-12-29T13:58:40.301Z,100850.25
2022-12-29T14:01:11.735Z,100854.78
2022-12-29T14:03:44.627Z,100849.94
2022-12-29T14:06:31.668Z,100857.47
2022-12-29T14:09:00.821Z,100854.31
2022-12-29T14:11:35.554Z,100861.91
2022-12-29T14:14:12.904Z,100865.84
2022-12-29T14:16:39.523Z,100859.03
2022-12-29T14:19:07.025Z,100858.53
2022-12-29T14:21:34.405Z,100850.72
2022-12-29T14:24:19.871Z,100854.63
2022-12-29T14:26:46.435Z,100848.75
2022-12-29T14:29:33.138Z,100852.91
2022-12-29T14:31:59.647Z,100847.16
2022-12-29T14:34:30.104Z,100842.16
2022-12-29T14:37:00.535Z,100838.25
2022-12-29T14:39:37.830Z,100849.03
2022-12-29T14:42:04.250Z,100849.50
2022-12-29T14:44:30.762Z,100850.72
2022-12-29T14:47:01.680Z,100851.72
2022-12-29T14:49:28.993Z,100854.63
2022-12-29T14:51:56.276Z,100862.94
2022-12-29T14:54:33.260Z,100864.56
2022-12-29T14:57:00.415Z,100862.47
2022-12-29T14:59:27.391Z,100858.53
2022-12-29T15:01:54.173Z,100856.88
2022-12-29T15:04:23.810Z,100862.72
2022-12-29T15:06:50.287Z,100862.09
2022-12-29T15:09:27.845Z,100863.97
2022-12-29T15:11:55.318Z,100869.31
2022-12-29T15:14:33.107Z,100866.50
2022-12-29T15:16:59.685Z,100873.94
2022-12-29T15:19:26.580Z,100883.25
2022-12-29T15:21:53.314Z,100888.63
2022-12-29T15:24:19.732Z,100880.59
2022-12-29T15:26:53.327Z,100888.37
2022-12-29T15:29:38.931Z,100885.94
2022-12-29T15:32:17.670Z,100897.63
2022-12-29T15:34:44.971Z,100882.44
2022-12-29T15:37:16.382Z,100893.28
2022-12-29T15:39:42.909Z,100891.78
2022-12-29T15:42:15.339Z,100886.56
2022-12-29T15:44:42.307Z,100887.09
2022-12-29T15:47:18.797Z,100886.75
2022-12-29T15:49:45.609Z,100889.97
2022-12-29T15:52:11.994Z,100898.16
2022-12-29T15:54:38.415Z,100887.53
2022-12-29T15:57:05.008Z,100884.31
2022-12-29T15:59:32.920Z,100888.28
2022-12-29T16:01:59.934Z,100884.59
2022-12-29T16:04:27.930Z,100887.91
2022-12-29T16:06:55.443Z,100890.69
2022-12-29T16:09:32.353Z,100892.88
2022-12-29T16:11:59.960Z,100891.09
2022-12-29T16:14:31.392Z,100888.03
2022-12-29T16:16:58.430Z,100884.37
2022-12-29T16:19:37.970Z,100889.38
2022-12-29T16:22:05.193Z,100891.16
2022-12-29T16:24:32.309Z,100889.56
2022-12-29T16:27:00.574Z,100892.62
2022-12-29T16:29:27.004Z,100890.13
2022-12-29T16:31:53.438Z,100880.00
2022-12-29T16:34:26.860Z,100886.88
2022-12-29T16:36:57.121Z,100894.56
2022-12-29T16:39:31.315Z,100902.25
2022-12-29T16:41:59.751Z,100895.41
2022-12-29T16:44:30.457Z,100911.28
2022-12-29T16:46:56.960Z,100908.13
2022-12-29T16:49:23.405Z,100902.59
2022-12-29T16:51:51.445Z,100897.97
2022-12-29T16:54:47.101Z,100902.16
2022-12-29T16:57:13.516Z,100909.25
2022-12-29T16:59:40.878Z,100914.31
2022-12-29T17:02:08.344Z,100921.06
2022-12-29T17:04:34.937Z,100921.41
2022-12-29T17:07:01.429Z,100917.09
2022-12-29T17:09:28.689Z,100911.72
2022-12-29T17:12:01.508Z,100913.28
2022-12-29T17:14:48.060Z,100921.50
2022-12-29T17:17:35.151Z,100920.38
2022-12-29T17:20:04.052Z,100918.91
2022-12-29T17:22:30.611Z,100915.37
2022-12-29T17:24:57.661Z,100907.47
2022-12-29T17:27:28.494Z,100905.47
2022-12-29T17:29:59.410Z,100909.91
2022-12-29T17:32:25.912Z,100912.00
2022-12-29T17:34:52.316Z,100902.50
2022-12-29T17:37:24.512Z,100912.16
2022-12-29T17:39:51.226Z,100909.91
2022-12-29T17:42:20.388Z,100905.22
2022-12-29T17:44:47.055Z,100909.06
2022-12-29T17:47:15.642Z,100915.16
2022-12-29T17:49:46.069Z,100916.88
2022-12-29T17:52:13.315Z,100908.78
2022-12-29T17:54:42.390Z,100906.12
2022-12-29T17:57:10.993Z,100901.66
2022-12-29T17:59:37.654Z,100898.91
2022-12-29T18:02:04.193Z,100892.84
2022-12-29T18:04:30.722Z,100903.38
2022-12-29T18:06:57.139Z,100908.59
2022-12-29T18:09:23.520Z,100907.00
2022-12-29T18:11:49.953Z,100903.66
2022-12-29T18:14:16.570Z,100903.66
2022-12-29T18:16:43.142Z,100897.97
2022-12-29T18:19:09.711Z,100879.22
2022-12-29T18:21:36.180Z,100869.97
2022-12-29T18:24:02.830Z,100870.66
2022-12-29T18:26:31.670Z,100882.56
2022-12-29T18:28:58.438Z,100878.91
2022-12-29T18:31:27.676Z,100880.16
2022-12-29T18:33:54.746Z,100877.06
2022-12-29T18:36:21.299Z,100864.44
2022-12-29T18:38:47.717Z,100862.00
2022-12-29T18:41:18.467Z,100860.72
2022-12-29T18:43:44.993Z,100866.16
2022-12-29T18:46:12.581Z,100868.28
2022-12-29T18:48:41.398Z,100869.12
2022-12-29T18:51:07.925Z,100876.97
2022-12-29T18:53:37.267Z,100876.97
2022-12-29T18:56:03.991Z,100882.81
2022-12-29T18:58:34.130Z,100879.09
2022-12-29T19:01:01.080Z,100874.97
2022-12-29T19:03:27.636Z,100874.63
2022-12-29T19:05:54.189Z,100876.72
2022-12-29T19:08:20.858Z,100871.28
2022-12-29T19:10:47.394Z,100865.19
2022-12-29T19:13:17.774Z,100862.97
2022-12-29T19:15:46.405Z,100855.75
2022-12-29T19:21:06.432Z,100861.16
2022-12-29T19:23:33.337Z,100868.41
2022-12-29T19:25:59.713Z,100864.88
2022-12-29T19:28:27.388Z,100865.41
2022-12-29T19:30:57.061Z,100868.66
2022-12-29T19:33:23.917Z,100866.94
2022-12-29T19:35:50.353Z,100854.44
2022-12-29T19:38:16.738Z,100859.78
2022-12-29T19:40:44.018Z,100861.25
2022-12-29T19:43:11.660Z,100862.66
2022-12-29T19:45:39.041Z,100865.47
2022-12-29T19:48:05.548Z,100857.78
2022-12-29T19:50:32.523Z,100855.28
2022-12-29T19:53:05.029Z,100851.28
2022-12-29T19:55:31.924Z,100856.03
2022-12-29T19:57:58.377Z,100852.16
2022-12-29T20:00:24.813Z,100851.44
2022-12-29T20:02:51.434Z,100863.63
2022-12-29T20:05:19.216Z,100858.72
2022-12-29T20:07:47.755Z,100850.47
2022-12-29T20:10:14.146Z,100852.69
2022-12-29T20:12:40.701Z,100840.56
2022-12-29T20:15:07.477Z,100829.72
2022-12-29T20:18:10.678Z,100836.56
2022-12-29T20:20:20.416Z,100840.41
2022-12-29T20:22:46.845Z,100841.66
2022-12-29T20:25:43.597Z,100838.41
2022-12-29T20:27:59.936Z,100856.97
2022-12-29T20:30:28.440Z,100841.81
2022-12-29T20:32:54.942Z,100840.66
2022-12-29T20:35:21.464Z,100843.44
2022-12-29T20:37:47.887Z,100834.34
2022-12-29T20:40:14.284Z,100834.44
2022-12-29T20:42:40.667Z,100840.63
2022-12-29T20:45:07.113Z,100835.47
2022-12-29T20:47:33.494Z,100838.94
2022-12-29T20:50:00.072Z,100841.66
2022-12-29T20:52:26.508Z,100845.59
2022-12-29T20:54:52.941Z,100841.63
2022-12-29T20:57:19.325Z,100838.06
2022-12-29T20:59:45.724Z,100837.56
2022-12-29T21:02:19.194Z,100837.13
2022-12-29T21:05:22.308Z,100829.59
2022-12-29T21:07:33.026Z,100831.88
2022-12-29T21:09:59.423Z,100834.97
2022-12-29T21:12:28.230Z,100842.69
2022-12-29T21:14:55.979Z,100848.72
2022-12-29T21:17:22.426Z,100854.16
2022-12-29T21:19:48.825Z,100856.19
2022-12-29T21:22:15.241Z,100859.59
2022-12-29T21:24:41.748Z,100848.72
2022-12-29T21:27:08.181Z,100841.94
2022-12-29T21:29:34.714Z,100839.91
2022-12-29T21:32:06.261Z,100842.50
2022-12-29T21:34:34.678Z,100849.19
2022-12-29T21:37:03.391Z,100852.97
2022-12-29T21:39:29.770Z,100842.91
2022-12-29T21:42:00.450Z,100831.50
2022-12-29T21:44:45.910Z,100833.13
2022-12-29T21:47:12.369Z,100835.72
2022-12-29T21:49:38.793Z,100828.12
2022-12-29T21:52:05.457Z,100827.66
2022-12-29T21:54:50.864Z,100833.34
2022-12-29T21:57:36.357Z,100838.59
2022-12-29T22:00:22.387Z,100837.00
2022-12-29T22:03:07.517Z,100849.84
2022-12-29T22:05:52.809Z,100845.03
2022-12-29T22:08:38.150Z,100842.47
2022-12-29T22:11:26.408Z,100847.03
2022-12-29T22:13:55.882Z,100839.28
2022-12-29T22:16:23.499Z,100837.16
2022-12-29T22:18:49.989Z,100834.41
2022-12-29T22:21:16.406Z,100836.78
2022-12-29T22:23:42.813Z,100836.72
2022-12-29T22:26:10.094Z,100838.78
2022-12-29T22:28:39.829Z,100831.03
2022-12-29T22:31:06.927Z,100840.87
2022-12-29T22:33:33.498Z,100832.53
2022-12-29T22:35:59.992Z,100831.25
2022-12-29T22:38:26.495Z,100823.41
2022-12-29T22:40:57.667Z,100817.84
2022-12-29T22:43:24.567Z,100822.53
2022-12-29T22:45:51.030Z,100814.47
2022-12-29T22:48:17.427Z,100814.16
2022-12-29T22:50:43.881Z,100815.25
2022-12-29T22:53:10.312Z,100811.03
2022-12-29T22:55:36.741Z,100818.84
2022-12-29T22:58:03.379Z,100816.72
2022-12-29T23:00:29.799Z,100814.59
2022-12-29T23:02:56.346Z,100817.72
2022-12-29T23:05:22.985Z,100827.19
2022-12-29T23:07:49.413Z,100824.91
2022-12-29T23:10:16.309Z,100828.47
2022-12-29T23:12:42.733Z,100822.19
2022-12-29T23:15:12.161Z,100815.44
2022-12-29T23:17:38.551Z,100806.63
2022-12-29T23:20:06.228Z,100811.53
2022-12-29T23:22:32.640Z,100812.00
2022-12-29T23:24:59.081Z,100806.44
2022-12-29T23:27:25.484Z,100799.78
2022-12-29T23:29:51.920Z,100795.94
2022-12-29T23:32:18.363Z,100790.34
2022-12-29T23:34:44.786Z,100797.41
2022-12-29T23:37:11.220Z,100800.97
2022-12-29T23:39:37.780Z,100794.31
2022-12-29T23:42:04.305Z,100791.97
2022-12-29T23:44:30.906Z,100795.59
2022-12-29T23:46:57.334Z,100787.75
2022-12-29T23:49:23.938Z,100786.94
2022-12-29T23:51:50.342Z,100790.44
2022-12-29T23:54:16.761Z,100779.97
2022-12-29T23:56:43.141Z,100780.91
2022-12-29T23:59:09.532Z,100772.34
